Time;durP1;ratioP1;P1;durP2;ratioP2;P2;SDS_P1;SDS_P2;PMS_P1;PMS_P2;Temp;Humidity;BMP_temperature;BMP_pressure;BME280_temperature;BME280_humidity;BME280_pressure;Samples;Min_cycle;Max_cycle;Signal;HPM_P1;HPM_P2
2022/04/02 00:01:48;;;;;;;5.80;1.80;;;2.90;96.90;;;;;;5019113;28;20454;-63
2022/04/02 00:04:14;;;;;;;2.75;1.50;;;2.90;97.00;;;;;;5017134;28;20041;-63
2022/04/02 00:06:40;;;;;;;6.15;1.90;;;2.90;97.10;;;;;;4974178;28;20200;-62
2022/04/02 00:09:05;;;;;;;3.05;1.80;;;2.80;97.20;;;;;;5030284;28;20051;-63
2022/04/02 00:11:31;;;;;;;4.00;1.60;;;2.90;97.40;;;;;;5015404;28;20041;-62
2022/04/02 00:14:00;;;;;;;5.90;1.70;;;2.80;97.40;;;;;;5019862;28;20094;-62
2022/04/02 00:16:26;;;;;;;18.15;3.65;;;2.80;97.50;;;;;;5012857;28;20572;-63
2022/04/02 00:18:52;;;;;;;3.65;2.00;;;2.70;97.50;;;;;;5038933;28;20041;-62
2022/04/02 00:21:18;;;;;;;7.07;1.70;;;2.70;97.60;;;;;;5014292;28;20355;-63
2022/04/02 00:23:44;;;;;;;4.80;1.70;;;2.70;97.60;;;;;;5016058;28;20461;-63
2022/04/02 00:26:16;;;;;;;3.88;1.85;;;2.70;97.70;;;;;;5032478;28;20036;-62
2022/04/02 00:28:43;;;;;;;4.85;1.55;;;2.70;97.70;;;;;;5032830;28;20272;-63
2022/04/02 00:31:12;;;;;;;2.78;1.60;;;2.60;97.70;;;;;;5008032;28;20150;-63
2022/04/02 00:33:39;;;;;;;4.45;1.90;;;2.60;97.70;;;;;;5031092;28;20029;-63
2022/04/02 00:36:06;;;;;;;5.63;2.00;;;2.60;97.80;;;;;;5010533;28;20083;-63
2022/04/02 00:38:32;;;;;;;2.60;1.80;;;2.50;97.80;;;;;;5029297;28;20066;-62
2022/04/02 00:40:58;;;;;;;3.67;1.83;;;2.50;97.80;;;;;;4998507;28;20034;-63
2022/04/02 00:43:36;;;;;;;5.22;2.20;;;2.50;97.80;;;;;;5026194;28;20045;-63
2022/04/02 00:46:12;;;;;;;4.43;2.33;;;2.50;97.80;;;;;;5010013;28;20040;-63
2022/04/02 00:48:39;;;;;;;5.88;2.00;;;2.50;97.90;;;;;;5006082;28;20128;-63
2022/04/02 00:51:06;;;;;;;3.83;1.83;;;2.50;97.90;;;;;;5009441;28;20045;-63
2022/04/02 00:53:38;;;;;;;5.28;2.25;;;2.40;97.80;;;;;;5013602;28;20052;-62
2022/04/02 00:56:05;;;;;;;4.45;2.08;;;2.50;97.90;;;;;;5035903;28;20386;-62
2022/04/02 00:58:31;;;;;;;5.82;2.17;;;2.50;97.90;;;;;;5037700;28;20530;-63
2022/04/02 01:00:57;;;;;;;5.10;2.20;;;2.40;98.00;;;;;;5034836;28;20036;-62
2022/04/02 01:03:23;;;;;;;4.80;2.20;;;2.40;97.90;;;;;;5029710;28;20119;-63
2022/04/02 01:05:50;;;;;;;4.90;2.22;;;2.40;97.90;;;;;;5031643;28;20073;-62
2022/04/02 01:08:16;;;;;;;4.30;2.30;;;2.40;97.90;;;;;;5025543;28;20563;-62
2022/04/02 01:10:42;;;;;;;6.88;2.15;;;2.40;97.90;;;;;;5015002;28;20041;-63
2022/04/02 01:13:09;;;;;;;4.25;2.05;;;2.30;97.80;;;;;;5036706;28;20170;-63
2022/04/02 01:15:36;;;;;;;5.88;2.20;;;2.30;98.20;;;;;;5033360;28;20033;-62
2022/04/02 01:18:03;;;;;;;4.63;2.30;;;2.30;98.00;;;;;;5010637;28;20037;-63
2022/04/02 01:20:30;;;;;;;3.05;1.52;;;2.20;98.00;;;;;;5036266;28;20090;-63
2022/04/02 01:22:59;;;;;;;4.13;2.08;;;2.20;98.00;;;;;;5019421;28;20049;-62
2022/04/02 01:25:31;;;;;;;3.85;2.00;;;2.10;98.10;;;;;;5036477;28;20079;-63
2022/04/02 01:27:59;;;;;;;5.40;2.33;;;2.10;98.20;;;;;;5036696;28;20043;-62
2022/04/02 01:30:25;;;;;;;7.20;1.98;;;2.10;98.20;;;;;;5029439;28;20045;-63
2022/04/02 01:32:51;;;;;;;4.68;2.50;;;2.10;98.20;;;;;;5011219;28;20037;-63
2022/04/02 01:35:19;;;;;;;6.93;2.15;;;2.00;98.20;;;;;;5019550;28;20055;-63
2022/04/02 01:37:45;;;;;;;4.57;1.98;;;2.00;98.20;;;;;;5020261;28;20057;-63
2022/04/02 01:40:11;;;;;;;9.10;3.20;;;2.00;98.20;;;;;;5032120;28;20033;-63
2022/04/02 01:42:37;;;;;;;5.03;2.05;;;2.00;98.20;;;;;;5023521;28;20110;-62
2022/04/02 01:45:04;;;;;;;6.03;2.40;;;2.00;98.20;;;;;;5034014;28;20484;-63
2022/04/02 01:47:30;;;;;;;5.55;2.10;;;1.90;98.20;;;;;;5002783;28;20045;-63
2022/04/02 01:49:56;;;;;;;4.25;2.05;;;1.90;98.20;;;;;;5016488;28;20045;-63
2022/04/02 01:52:22;;;;;;;4.55;1.95;;;1.90;98.20;;;;;;5013038;28;20050;-62
2022/04/02 01:54:49;;;;;;;4.00;1.90;;;1.90;98.30;;;;;;5038709;28;20045;-62
2022/04/02 01:57:16;;;;;;;7.30;2.42;;;1.80;98.30;;;;;;5035814;28;20044;-63
2022/04/02 01:59:44;;;;;;;5.57;1.90;;;1.80;98.40;;;;;;5020176;28;20124;-62
2022/04/02 02:02:11;;;;;;;5.28;2.53;;;1.80;98.40;;;;;;5031585;28;20401;-63
2022/04/02 02:04:37;;;;;;;3.63;1.95;;;1.80;98.50;;;;;;4997864;28;20033;-63
2022/04/02 02:07:04;;;;;;;4.22;2.13;;;1.70;98.50;;;;;;5025964;28;20045;-63
2022/04/02 02:09:30;;;;;;;5.85;2.60;;;1.70;98.60;;;;;;5016446;28;20559;-63
2022/04/02 02:11:56;;;;;;;6.45;2.45;;;1.70;98.70;;;;;;5029384;28;21592;-63
2022/04/02 02:14:23;;;;;;;7.72;2.60;;;1.70;98.70;;;;;;5019019;28;20045;-63
2022/04/02 02:16:49;;;;;;;4.82;2.40;;;1.70;98.70;;;;;;5014167;28;20052;-63
2022/04/02 02:19:15;;;;;;;4.00;1.95;;;1.70;98.80;;;;;;5032149;28;20489;-63
2022/04/02 02:21:41;;;;;;;8.75;2.65;;;1.70;98.80;;;;;;5017543;28;20045;-63
2022/04/02 02:24:08;;;;;;;3.58;1.65;;;1.70;98.90;;;;;;5016744;28;20045;-63
2022/04/02 02:26:34;;;;;;;4.20;2.35;;;1.70;98.90;;;;;;5034503;28;20033;-63
2022/04/02 02:29:00;;;;;;;5.30;2.20;;;1.70;98.90;;;;;;5016291;28;20053;-63
2022/04/02 02:31:26;;;;;;;4.75;1.88;;;1.60;98.90;;;;;;5013561;28;20063;-64
2022/04/02 02:36:36;;;;;;;6.15;2.15;;;1.60;98.90;;;;;;5017724;28;20045;-63
2022/04/02 02:39:03;;;;;;;4.65;1.95;;;1.60;98.90;;;;;;5034315;28;20063;-63
2022/04/02 02:41:29;;;;;;;4.25;1.88;;;1.60;99.00;;;;;;4999091;28;20236;-62
2022/04/02 02:43:55;;;;;;;5.78;1.80;;;1.60;99.00;;;;;;5011423;28;20048;-64
2022/04/02 02:46:21;;;;;;;3.20;1.40;;;1.50;99.00;;;;;;5029210;28;20029;-63
2022/04/02 02:48:47;;;;;;;4.75;1.95;;;1.50;99.00;;;;;;5019319;28;20098;-63
2022/04/02 02:51:13;;;;;;;6.28;1.80;;;1.50;99.00;;;;;;5033493;28;20041;-62
2022/04/02 02:53:39;;;;;;;7.45;2.30;;;1.50;99.10;;;;;;5039995;28;20117;-63
2022/04/02 02:56:05;;;;;;;3.00;1.60;;;1.50;99.10;;;;;;5016255;28;20104;-63
2022/04/02 02:58:31;;;;;;;3.58;2.35;;;1.50;99.10;;;;;;5014166;28;20085;-63
2022/04/02 03:00:57;;;;;;;3.92;1.73;;;1.50;99.10;;;;;;5017610;28;20140;-63
2022/04/02 03:03:22;;;;;;;7.90;1.90;;;1.50;99.00;;;;;;5029875;23;20055;-54
2022/04/02 03:05:48;;;;;;;2.72;1.50;;;1.50;99.10;;;;;;5052277;28;20454;-55
2022/04/02 03:08:16;;;;;;;8.27;2.05;;;1.50;99.00;;;;;;5064644;28;20421;-55
2022/04/02 03:10:44;;;;;;;3.60;1.52;;;1.50;99.00;;;;;;5051558;28;20052;-52
2022/04/02 03:13:10;;;;;;;3.13;1.75;;;1.50;99.00;;;;;;5030038;28;20044;-56
2022/04/02 03:15:36;;;;;;;3.83;1.58;;;1.50;98.90;;;;;;5038239;28;20055;-53
2022/04/02 03:18:04;;;;;;;4.97;1.63;;;1.50;98.80;;;;;;5053661;28;21058;-54
2022/04/02 03:20:29;;;;;;;5.30;1.70;;;1.50;98.70;;;;;;5049904;28;20546;-53
2022/04/02 03:22:55;;;;;;;4.80;1.98;;;1.50;98.60;;;;;;5048878;28;20048;-55
2022/04/02 03:25:21;;;;;;;6.03;1.80;;;1.50;98.60;;;;;;5054898;28;20132;-57
2022/04/02 03:27:47;;;;;;;6.05;1.48;;;1.50;98.50;;;;;;5049394;28;20126;-56
2022/04/02 03:30:15;;;;;;;6.50;1.55;;;1.50;98.40;;;;;;5067491;28;20466;-55
2022/04/02 03:32:42;;;;;;;5.20;1.98;;;1.50;98.30;;;;;;5048059;28;20044;-53
2022/04/02 03:35:08;;;;;;;8.27;1.73;;;1.50;98.20;;;;;;5050752;28;21399;-52
2022/04/02 03:37:38;;;;;;;3.53;1.90;;;1.50;98.20;;;;;;5052601;28;20044;-55
2022/04/02 03:40:14;;;;;;;3.60;1.42;;;1.50;98.10;;;;;;5042917;28;20115;-55
2022/04/02 03:42:41;;;;;;;1.75;1.15;;;1.50;98.10;;;;;;5051887;28;20048;-52
2022/04/02 03:45:09;;;;;;;2.58;1.30;;;1.50;98.00;;;;;;5064005;28;20205;-56
2022/04/02 03:47:35;;;;;;;3.97;1.30;;;1.50;98.00;;;;;;5059965;28;20036;-56
2022/04/02 03:50:01;;;;;;;3.90;1.65;;;1.50;98.00;;;;;;5051376;28;20094;-54
2022/04/02 03:52:27;;;;;;;4.32;1.90;;;1.50;98.00;;;;;;5039709;28;20040;-56
2022/04/02 03:54:52;;;;;;;4.38;1.13;;;1.50;98.00;;;;;;5038436;28;20048;-53
2022/04/02 03:57:19;;;;;;;7.32;1.45;;;1.50;97.90;;;;;;5055438;28;20500;-56
2022/04/02 03:59:46;;;;;;;3.47;1.55;;;1.50;97.90;;;;;;5056491;28;20041;-55
2022/04/02 04:02:12;;;;;;;2.97;1.20;;;1.50;97.80;;;;;;5050406;28;20041;-55
2022/04/02 04:04:39;;;;;;;5.60;1.63;;;1.50;97.80;;;;;;5055692;28;20033;-56
2022/04/02 04:07:06;;;;;;;6.50;1.70;;;1.50;97.80;;;;;;5056538;28;20216;-56
2022/04/02 04:09:32;;;;;;;5.32;1.30;;;1.40;97.80;;;;;;5047251;28;20240;-56
2022/04/02 04:11:58;;;;;;;6.57;1.38;;;1.40;97.80;;;;;;5048742;28;20040;-54
2022/04/02 04:14:25;;;;;;;7.35;1.48;;;1.40;97.80;;;;;;5057018;28;20044;-52
2022/04/02 04:16:53;;;;;;;4.05;1.33;;;1.40;97.80;;;;;;5054463;28;20051;-55
2022/04/02 04:19:20;;;;;;;3.63;1.63;;;1.50;97.90;;;;;;5069138;28;20281;-56
2022/04/02 04:21:46;;;;;;;4.75;2.15;;;1.40;97.90;;;;;;5034913;28;20040;-55
2022/04/02 04:24:14;;;;;;;4.85;1.55;;;1.40;97.90;;;;;;5054276;28;20040;-53
2022/04/02 04:26:41;;;;;;;9.98;2.40;;;1.40;97.90;;;;;;5052340;28;20501;-56
2022/04/02 04:29:07;;;;;;;7.07;2.05;;;1.40;97.90;;;;;;5039159;28;20098;-54
2022/04/02 04:31:34;;;;;;;6.13;1.30;;;1.40;97.90;;;;;;5034858;28;20037;-54
2022/04/02 04:33:59;;;;;;;3.90;1.58;;;1.40;98.20;;;;;;5032926;28;20047;-55
2022/04/02 04:36:25;;;;;;;6.18;2.00;;;1.30;98.00;;;;;;5052017;28;20041;-55
2022/04/02 04:38:51;;;;;;;7.25;1.10;;;1.40;98.00;;;;;;5039476;28;20333;-56
2022/04/02 04:41:18;;;;;;;7.47;1.40;;;1.40;97.90;;;;;;5056071;28;20094;-55
2022/04/02 04:43:47;;;;;;;10.13;2.72;;;1.40;97.90;;;;;;5049708;28;20544;-55
2022/04/02 04:46:14;;;;;;;4.47;1.50;;;1.40;97.80;;;;;;5046541;28;20052;-57
2022/04/02 04:48:40;;;;;;;2.80;1.17;;;1.40;97.70;;;;;;5035220;28;20167;-55
2022/04/02 04:51:07;;;;;;;6.95;1.67;;;1.40;97.70;;;;;;5019521;28;20044;-55
2022/04/02 04:53:32;;;;;;;4.72;1.13;;;1.40;97.60;;;;;;5055488;28;20032;-55
2022/04/02 04:55:58;;;;;;;4.00;1.15;;;1.40;97.50;;;;;;5036842;28;20524;-51
2022/04/02 04:58:24;;;;;;;2.60;1.23;;;1.40;97.40;;;;;;5058608;28;20032;-52
2022/04/02 05:00:51;;;;;;;3.50;2.00;;;1.40;97.40;;;;;;5055842;28;20094;-55
2022/04/02 05:03:17;;;;;;;2.75;1.35;;;1.40;97.30;;;;;;5039484;28;20398;-55
2022/04/02 05:05:43;;;;;;;2.78;0.90;;;1.40;97.30;;;;;;5021785;28;20066;-55
2022/04/02 05:08:09;;;;;;;5.25;1.38;;;1.30;97.30;;;;;;5023005;28;20437;-54
2022/04/02 05:10:38;;;;;;;4.38;1.50;;;1.30;97.30;;;;;;5042434;28;20048;-54
2022/04/02 05:13:04;;;;;;;2.65;1.30;;;1.30;97.40;;;;;;5045422;28;20049;-54
2022/04/02 05:15:30;;;;;;;3.88;1.23;;;1.30;97.40;;;;;;5047947;28;20044;-53
2022/04/02 05:17:56;;;;;;;2.90;1.40;;;1.30;97.50;;;;;;5050689;28;20093;-55
2022/04/02 05:20:22;;;;;;;3.72;1.60;;;1.30;97.50;;;;;;5050357;28;20052;-51
2022/04/02 05:22:47;;;;;;;5.45;1.50;;;1.30;97.50;;;;;;5054347;28;20041;-52
2022/04/02 05:25:14;;;;;;;2.85;1.45;;;1.30;97.50;;;;;;5053977;28;20071;-54
2022/04/02 05:27:41;;;;;;;5.50;1.58;;;1.30;97.60;;;;;;5057566;28;20040;-55
2022/04/02 05:30:07;;;;;;;2.15;1.42;;;1.30;97.60;;;;;;5056203;28;20071;-57
2022/04/02 05:32:33;;;;;;;4.25;1.98;;;1.40;97.70;;;;;;5049268;28;20043;-56
2022/04/02 05:34:59;;;;;;;3.13;1.45;;;1.40;97.70;;;;;;5040439;28;20036;-55
2022/04/02 05:37:25;;;;;;;4.20;2.00;;;1.40;97.80;;;;;;5052752;28;20041;-55
2022/04/02 05:39:52;;;;;;;2.83;1.48;;;1.40;97.80;;;;;;5051144;28;20519;-55
2022/04/02 05:42:18;;;;;;;3.55;1.58;;;1.40;97.70;;;;;;5052309;28;20044;-55
2022/04/02 05:44:44;;;;;;;4.15;1.70;;;1.50;97.80;;;;;;5058232;28;20036;-55
2022/04/02 05:47:09;;;;;;;5.30;1.63;;;1.50;97.80;;;;;;5055797;28;20550;-54
2022/04/02 05:49:36;;;;;;;2.70;1.40;;;1.50;97.80;;;;;;5048787;28;20119;-55
2022/04/02 05:52:04;;;;;;;2.55;1.50;;;1.60;97.80;;;;;;5055830;28;20041;-56
2022/04/02 05:54:31;;;;;;;4.40;1.60;;;1.60;97.80;;;;;;5057770;28;20040;-55
2022/04/02 05:56:57;;;;;;;7.75;2.50;;;1.60;97.80;;;;;;5056939;28;20041;-52
2022/04/02 05:59:23;;;;;;;6.85;1.83;;;1.60;97.80;;;;;;5036355;28;20044;-53
2022/04/02 06:01:50;;;;;;;4.63;1.65;;;1.70;97.80;;;;;;5049314;28;20236;-52
2022/04/02 06:04:16;;;;;;;5.72;1.92;;;1.70;97.90;;;;;;5054995;28;20043;-54
2022/04/02 06:06:42;;;;;;;3.63;1.88;;;1.80;97.90;;;;;;5034836;28;20341;-52
2022/04/02 06:09:08;;;;;;;4.70;1.90;;;1.80;98.00;;;;;;5047700;28;20523;-55
2022/04/02 06:11:34;;;;;;;3.35;1.48;;;1.80;97.90;;;;;;5047800;28;20044;-52
2022/04/02 06:14:01;;;;;;;5.63;1.73;;;1.90;97.80;;;;;;5015098;28;20127;-54
2022/04/02 06:16:26;;;;;;;2.88;1.90;;;1.90;97.80;;;;;;5048311;28;21244;-52
2022/04/02 06:18:53;;;;;;;8.57;3.88;;;1.90;97.90;;;;;;5049417;28;20045;-54
2022/04/02 06:21:19;;;;;;;8.57;4.63;;;2.10;97.90;;;;;;5048683;28;20091;-55
2022/04/02 06:23:46;;;;;;;7.72;4.30;;;2.10;97.90;;;;;;5052927;28;20037;-54
2022/04/02 06:26:12;;;;;;;10.05;4.43;;;2.10;97.90;;;;;;5043718;28;20132;-55
2022/04/02 06:28:39;;;;;;;10.30;6.72;;;2.20;97.90;;;;;;5049955;28;20094;-55
2022/04/02 06:31:05;;;;;;;12.48;7.07;;;2.20;97.90;;;;;;5045577;28;20409;-54
2022/04/02 06:33:34;;;;;;;10.77;6.30;;;2.30;98.00;;;;;;5047125;28;20044;-52
2022/04/02 06:36:01;;;;;;;10.13;4.80;;;2.30;97.90;;;;;;5052206;28;20741;-52
2022/04/02 06:38:26;;;;;;;11.10;5.63;;;2.40;97.90;;;;;;5037332;28;20405;-51
2022/04/02 06:40:53;;;;;;;14.00;7.60;;;2.40;97.80;;;;;;5056631;28;20187;-56
2022/04/02 06:43:20;;;;;;;8.35;5.40;;;2.40;97.70;;;;;;5045808;28;20102;-56
2022/04/02 06:45:46;;;;;;;7.55;4.90;;;2.50;97.60;;;;;;5046427;28;20040;-54
2022/04/02 06:48:13;;;;;;;6.18;4.30;;;2.50;97.60;;;;;;5051220;28;20067;-55
2022/04/02 06:50:40;;;;;;;8.75;3.30;;;2.50;97.50;;;;;;5048619;28;20048;-55
2022/04/02 06:53:06;;;;;;;6.53;2.92;;;2.50;97.50;;;;;;5046128;28;20076;-56
2022/04/02 06:55:32;;;;;;;4.55;3.20;;;2.60;97.50;;;;;;5055295;28;20134;-55
2022/04/02 06:57:58;;;;;;;4.97;2.17;;;2.60;97.40;;;;;;5054465;28;20059;-52
2022/04/02 07:00:25;;;;;;;5.88;2.70;;;2.60;97.30;;;;;;5055887;28;20048;-54
2022/04/02 07:02:51;;;;;;;6.82;2.40;;;2.70;97.30;;;;;;5028609;28;20045;-53
2022/04/02 07:05:18;;;;;;;7.80;3.22;;;2.70;97.20;;;;;;5028327;28;20041;-53
2022/04/02 07:07:45;;;;;;;3.92;2.55;;;2.70;97.20;;;;;;5043764;28;20055;-55
2022/04/02 07:10:11;;;;;;;4.18;2.20;;;2.80;97.20;;;;;;5034874;28;20040;-55
2022/04/02 07:12:37;;;;;;;3.97;2.10;;;2.90;97.10;;;;;;5054283;28;20051;-54
2022/04/02 07:15:05;;;;;;;6.32;1.80;;;3.00;97.10;;;;;;5043092;28;20384;-51
2022/04/02 07:17:30;;;;;;;3.08;1.70;;;3.10;97.00;;;;;;5049776;28;20612;-52
2022/04/02 07:19:59;;;;;;;3.78;1.55;;;3.20;96.90;;;;;;5047039;28;20024;-52
2022/04/02 07:22:25;;;;;;;5.68;1.77;;;3.30;96.80;;;;;;5035358;28;20055;-53
2022/04/02 07:24:53;;;;;;;4.07;1.73;;;3.40;96.70;;;;;;5048006;28;20037;-54
2022/04/02 07:27:25;;;;;;;3.78;1.58;;;3.50;96.50;;;;;;5049829;28;20485;-54
2022/04/02 07:29:53;;;;;;;4.60;1.60;;;3.60;96.30;;;;;;5030992;28;20052;-54
2022/04/02 07:32:19;;;;;;;4.03;2.08;;;3.70;96.10;;;;;;5044831;28;20051;-56
2022/04/02 07:34:45;;;;;;;5.07;1.50;;;3.90;96.00;;;;;;5031086;28;20240;-55
2022/04/02 07:37:32;;;;;;;4.95;1.60;;;3.90;95.70;;;;;;5041899;28;20059;-55
2022/04/02 07:40:18;;;;;;;3.85;1.70;;;4.10;95.40;;;;;;5043476;28;20357;-55
2022/04/02 07:43:09;;;;;;;4.30;1.75;;;4.20;95.00;;;;;;5046599;28;20497;-53
2022/04/02 07:45:41;;;;;;;6.25;1.55;;;4.30;94.80;;;;;;5041799;28;20048;-55
2022/04/02 07:48:09;;;;;;;6.10;1.70;;;4.40;94.20;;;;;;5028319;28;20131;-56
2022/04/02 07:50:40;;;;;;;5.32;1.60;;;4.50;94.10;;;;;;5051152;28;20036;-56
2022/04/02 07:53:11;;;;;;;4.15;1.55;;;4.60;93.50;;;;;;5048712;28;20036;-55
2022/04/02 07:55:41;;;;;;;3.55;1.35;;;4.70;93.40;;;;;;5038291;28;20407;-55
2022/04/02 07:58:17;;;;;;;4.93;2.17;;;4.80;93.50;;;;;;5048659;28;20052;-55
2022/04/02 08:00:47;;;;;;;3.90;1.50;;;4.90;93.20;;;;;;5048415;28;20098;-55
2022/04/02 08:03:13;;;;;;;5.10;1.63;;;5.00;92.20;;;;;;5042667;28;20079;-55
2022/04/02 08:05:40;;;;;;;4.25;1.20;;;5.00;92.10;;;;;;5045826;28;20475;-55
2022/04/02 08:08:07;;;;;;;2.72;1.10;;;5.00;91.00;;;;;;5049181;28;20123;-56
2022/04/02 08:10:35;;;;;;;4.80;1.33;;;5.00;91.50;;;;;;5043435;28;20044;-55
2022/04/02 08:13:01;;;;;;;4.32;1.00;;;5.00;90.70;;;;;;5046045;28;20052;-54
2022/04/02 08:15:26;;;;;;;3.00;1.23;;;5.00;90.90;;;;;;5036245;28;20046;-55
2022/04/02 08:17:54;;;;;;;6.32;1.42;;;5.00;90.30;;;;;;5039620;28;20490;-56
2022/04/02 08:20:21;;;;;;;4.47;1.92;;;4.90;89.80;;;;;;5047541;28;20048;-52
2022/04/02 08:22:47;;;;;;;6.57;2.40;;;4.80;90.80;;;;;;5049602;28;20055;-55
2022/04/02 08:25:14;;;;;;;7.57;5.18;;;4.70;92.40;;;;;;5047109;28;20643;-54
2022/04/02 08:27:58;;;;;;;10.60;8.25;;;4.60;93.30;;;;;;5056167;28;20041;-53
2022/04/02 08:30:34;;;;;;;8.30;4.80;;;4.50;94.20;;;;;;5051583;28;20544;-57
2022/04/02 08:33:12;;;;;;;7.00;3.85;;;4.50;94.90;;;;;;5046032;28;20128;-55
2022/04/02 08:36:12;;;;;;;6.38;2.75;;;4.50;94.90;;;;;;5054156;28;20622;-60
2022/04/02 08:38:43;;;;;;;6.15;2.25;;;4.60;95.30;;;;;;5055278;28;20057;-55
2022/04/02 08:41:43;;;;;;;7.00;4.78;;;4.70;95.00;;;;;;5048335;28;20044;-58
2022/04/02 08:44:21;;;;;;;5.40;2.28;;;4.70;95.20;;;;;;5048961;28;20102;-56
2022/04/02 08:47:12;;;;;;;9.82;3.60;;;4.90;95.50;;;;;;5056761;28;20084;-61
2022/04/02 08:50:06;;;;;;;4.45;2.08;;;5.20;95.10;;;;;;5050506;28;20525;-55
2022/04/02 08:52:51;;;;;;;4.30;1.42;;;5.50;95.70;;;;;;5045989;28;20450;-60
2022/04/02 08:55:20;;;;;;;4.57;1.45;;;5.70;94.50;;;;;;5062373;28;20036;-55
2022/04/02 08:57:52;;;;;;;5.53;2.28;;;5.60;93.40;;;;;;5042698;28;20091;-55
2022/04/02 09:00:26;;;;;;;6.53;1.85;;;5.70;93.30;;;;;;5053491;28;20045;-60
2022/04/02 09:03:10;;;;;;;;;;;5.70;93.30;;;;;;5038112;28;20049;-53
2022/04/02 09:05:48;;;;;;;4.13;1.35;;;5.90;93.60;;;;;;5039281;28;19917;-56
2022/04/02 09:08:32;;;;;;;4.82;1.38;;;6.20;93.10;;;;;;5060606;28;20059;-60
2022/04/02 09:11:37;;;;;;;2.03;1.13;;;6.40;93.30;;;;;;5056472;28;20094;-54
2022/04/02 09:14:18;;;;;;;3.85;1.30;;;6.70;92.60;;;;;;5043438;28;20048;-55
2022/04/02 09:16:55;;;;;;;2.55;1.20;;;6.80;90.20;;;;;;5052788;28;20401;-56
2022/04/02 09:19:50;;;;;;;4.30;2.28;;;6.90;90.80;;;;;;5058067;28;20036;-52
2022/04/02 09:22:33;;;;;;;5.13;1.48;;;7.10;90.50;;;;;;5050588;28;20049;-56
2022/04/02 09:25:17;;;;;;;3.47;1.40;;;7.10;89.50;;;;;;5042426;28;20045;-54
2022/04/02 09:27:55;;;;;;;2.13;1.10;;;7.20;86.20;;;;;;5059923;28;20488;-54
2022/04/02 09:30:42;;;;;;;2.97;1.10;;;7.20;85.70;;;;;;5058516;28;20029;-55
2022/04/02 09:33:49;;;;;;;3.55;1.27;;;7.40;85.80;;;;;;5053778;28;20040;-58
2022/04/02 09:36:30;;;;;;;4.53;1.30;;;7.60;83.80;;;;;;5037914;28;20290;-52
2022/04/02 09:39:06;;;;;;;5.53;1.48;;;7.40;82.10;;;;;;5052827;28;20751;-56
2022/04/02 09:41:56;;;;;;;3.28;1.15;;;7.10;81.60;;;;;;5054950;28;20087;-54
2022/04/02 09:44:47;;;;;;;5.70;1.20;;;6.90;82.20;;;;;;5057122;28;20489;-58
2022/04/02 09:47:24;;;;;;;5.47;1.67;;;6.60;80.20;;;;;;5049858;28;20114;-56
2022/04/02 09:50:08;;;;;;;4.03;1.30;;;6.40;80.00;;;;;;5048682;28;20047;-53
2022/04/02 09:52:38;;;;;;;2.22;1.02;;;6.50;81.10;;;;;;5055836;28;20111;-52
2022/04/02 09:55:05;;;;;;;4.93;1.30;;;6.80;81.10;;;;;;5056533;28;20039;-55
2022/04/02 09:57:55;;;;;;;2.90;0.98;;;7.20;81.80;;;;;;5069537;28;20042;-56
2022/04/02 10:00:25;;;;;;;5.28;1.35;;;7.30;80.00;;;;;;5059107;28;20101;-54
2022/04/02 10:03:04;;;;;;;7.53;1.17;;;7.40;79.20;;;;;;5053026;28;20086;-56
2022/04/02 10:05:44;;;;;;;5.65;1.55;;;7.30;79.10;;;;;;5055893;28;20045;-56
2022/04/02 10:08:30;;;;;;;2.67;1.10;;;7.20;75.60;;;;;;5042023;28;20439;-52
2022/04/02 10:11:00;;;;;;;3.85;1.23;;;7.10;76.30;;;;;;5054631;28;20128;-53
2022/04/02 10:13:30;;;;;;;4.18;1.10;;;6.80;73.80;;;;;;5051725;28;20102;-55
2022/04/02 10:15:59;;;;;;;3.60;1.15;;;6.80;75.20;;;;;;5038027;28;20037;-57
2022/04/02 10:18:26;;;;;;;4.22;1.50;;;7.10;77.10;;;;;;5052170;28;20049;-55
2022/04/02 10:20:53;;;;;;;2.08;0.98;;;7.30;74.30;;;;;;5066714;28;20189;-53
2022/04/02 10:23:21;;;;;;;3.90;1.17;;;7.20;74.60;;;;;;5043999;28;20048;-56
2022/04/02 10:26:07;;;;;;;4.97;1.10;;;7.00;74.10;;;;;;5060645;28;20048;-55
2022/04/02 10:28:45;;;;;;;4.10;1.20;;;6.80;75.00;;;;;;5050415;28;20554;-56
2022/04/02 10:31:26;;;;;;;2.80;1.10;;;6.70;75.90;;;;;;5056896;28;20077;-54
2022/04/02 10:33:56;;;;;;;3.78;1.10;;;6.60;75.00;;;;;;5038812;28;20147;-61
2022/04/02 10:36:22;;;;;;;2.05;1.08;;;6.50;74.60;;;;;;5037278;28;20048;-57
2022/04/02 10:38:51;;;;;;;3.83;1.27;;;6.40;75.30;;;;;;5057565;28;20044;-54
2022/04/02 10:41:17;;;;;;;1.98;0.95;;;6.20;75.20;;;;;;5039429;28;20057;-56
2022/04/02 10:44:02;;;;;;;5.15;1.10;;;6.20;76.20;;;;;;5036199;28;20063;-56
2022/04/02 10:46:32;;;;;;;4.18;1.40;;;6.20;76.80;;;;;;5054968;28;20083;-56
2022/04/02 10:49:00;;;;;;;3.78;1.10;;;6.10;76.20;;;;;;5048991;28;20051;-55
2022/04/02 10:51:28;;;;;;;5.47;1.48;;;6.50;77.40;;;;;;5059316;28;20041;-56
2022/04/02 10:54:07;;;;;;;5.70;2.55;;;6.90;76.40;;;;;;5035962;28;20316;-55
2022/04/02 10:56:53;;;;;;;2.88;1.05;;;7.40;71.70;;;;;;5058810;28;20032;-55
2022/04/02 10:59:19;;;;;;;3.70;1.23;;;7.40;72.30;;;;;;5057686;28;20105;-55
2022/04/02 11:01:48;;;;;;;6.00;1.27;;;7.30;72.60;;;;;;5045816;28;20044;-55
2022/04/02 11:04:22;;;;;;;2.50;1.02;;;7.10;72.30;;;;;;5059371;28;20075;-62
2022/04/02 11:06:49;;;;;;;5.07;1.40;;;6.90;72.70;;;;;;5052659;28;20048;-56
2022/04/02 11:09:39;;;;;;;2.97;1.00;;;6.90;74.40;;;;;;5054184;28;20036;-55
2022/04/02 11:12:11;;;;;;;2.40;1.05;;;6.90;75.10;;;;;;5034142;28;20103;-58
2022/04/02 11:14:41;;;;;;;3.97;1.17;;;7.00;76.00;;;;;;5039188;28;20620;-55
2022/04/02 11:17:08;;;;;;;1.70;0.80;;;7.20;77.30;;;;;;5055574;28;20378;-55
2022/04/02 11:19:57;;;;;;;6.65;1.50;;;7.20;77.20;;;;;;5057334;28;20055;-54
2022/04/02 11:22:33;;;;;;;4.35;1.10;;;7.20;76.80;;;;;;5052403;28;20051;-56
2022/04/02 11:25:11;;;;;;;3.30;1.10;;;7.20;76.90;;;;;;5045944;28;20083;-55
2022/04/02 11:27:38;;;;;;;2.80;1.00;;;7.10;74.30;;;;;;5061517;28;20407;-54
2022/04/02 11:30:15;;;;;;;4.47;1.00;;;7.00;74.70;;;;;;5052083;28;20123;-57
2022/04/02 11:32:46;;;;;;;3.65;1.20;;;6.90;74.30;;;;;;5065565;28;20031;-55
2022/04/02 11:35:22;;;;;;;2.58;0.82;;;6.80;75.00;;;;;;5056383;28;20052;-54
2022/04/02 11:38:14;;;;;;;3.35;1.25;;;7.00;75.70;;;;;;5063093;28;20043;-55
2022/04/02 11:40:54;;;;;;;4.13;1.33;;;7.30;75.70;;;;;;5037250;28;20037;-53
2022/04/02 11:43:31;;;;;;;4.20;1.05;;;7.80;76.60;;;;;;5066870;22;20056;-56
2022/04/02 11:46:03;;;;;;;1.92;0.90;;;8.00;71.40;;;;;;5023785;28;20039;-61
2022/04/02 11:48:32;;;;;;;2.40;1.08;;;8.40;70.70;;;;;;5010653;28;20490;-55
2022/04/02 11:51:20;;;;;;;2.20;1.08;;;8.70;72.20;;;;;;5025871;28;20040;-57
2022/04/02 11:53:46;;;;;;;4.35;1.00;;;8.90;69.90;;;;;;5020336;28;20246;-58
2022/04/02 11:56:30;;;;;;;4.45;1.25;;;8.90;70.00;;;;;;5019686;28;20055;-59
2022/04/02 11:58:58;;;;;;;3.63;1.20;;;8.70;67.00;;;;;;5023192;28;20404;-55
2022/04/02 12:01:24;;;;;;;2.95;0.98;;;8.40;68.40;;;;;;5024819;28;20175;-55
2022/04/02 12:04:08;;;;;;;1.77;0.82;;;8.20;68.50;;;;;;5020079;28;20131;-57
2022/04/02 12:06:35;;;;;;;7.50;1.15;;;8.00;67.60;;;;;;5019778;28;20132;-57
2022/04/02 12:09:11;;;;;;;1.92;0.73;;;7.80;67.90;;;;;;5016215;28;20046;-53
2022/04/02 12:11:40;;;;;;;6.03;1.20;;;7.90;67.70;;;;;;5029606;28;20551;-52
2022/04/02 12:14:06;;;;;;;3.70;0.73;;;8.30;68.00;;;;;;5042437;28;20040;-59
2022/04/02 12:16:32;;;;;;;6.18;1.00;;;8.70;67.30;;;;;;5040098;28;20045;-57
2022/04/02 12:18:58;;;;;;;2.92;1.05;;;9.00;65.80;;;;;;5035195;28;20521;-54
2022/04/02 12:21:50;;;;;;;6.28;1.08;;;9.20;65.40;;;;;;5016317;28;20045;-56
2022/04/02 12:24:16;;;;;;;2.67;0.88;;;9.40;61.50;;;;;;5015378;28;20433;-62
2022/04/02 12:26:47;;;;;;;3.70;0.80;;;9.50;60.50;;;;;;5017600;28;20036;-57
2022/04/02 12:29:18;;;;;;;4.22;1.02;;;9.60;60.30;;;;;;5017003;28;20280;-56
2022/04/02 12:31:50;;;;;;;4.10;0.90;;;9.80;61.40;;;;;;5009653;28;20521;-54
2022/04/02 12:34:21;;;;;;;3.25;1.02;;;10.00;61.40;;;;;;5010318;28;20083;-55
2022/04/02 12:36:50;;;;;;;3.72;0.90;;;9.90;60.50;;;;;;5034205;28;20079;-53
2022/04/02 12:39:19;;;;;;;8.85;0.95;;;10.00;60.60;;;;;;5018674;28;20402;-57
2022/04/02 12:41:47;;;;;;;4.13;1.20;;;10.00;62.50;;;;;;5016670;28;20258;-57
2022/04/02 12:44:17;;;;;;;4.65;1.27;;;10.10;60.60;;;;;;5016610;28;20051;-57
2022/04/02 12:46:43;;;;;;;4.30;1.30;;;9.90;57.80;;;;;;5029674;28;20370;-59
2022/04/02 12:49:09;;;;;;;3.53;1.00;;;9.90;60.10;;;;;;5002641;28;20095;-60
2022/04/02 12:51:34;;;;;;;1.65;1.00;;;10.00;59.50;;;;;;5014919;28;20477;-57
2022/04/02 12:54:03;;;;;;;3.20;0.80;;;10.30;61.00;;;;;;5014729;28;20037;-55
2022/04/02 12:56:39;;;;;;;2.45;0.80;;;10.40;60.00;;;;;;5028414;28;20072;-55
2022/04/02 12:59:19;;;;;;;2.80;0.70;;;10.50;57.80;;;;;;5014357;28;20041;-59
2022/04/02 13:01:47;;;;;;;2.95;0.85;;;10.30;57.20;;;;;;5020832;28;20280;-56
2022/04/02 13:04:13;;;;;;;4.15;1.15;;;10.30;58.50;;;;;;5025727;28;20397;-55
2022/04/02 13:06:42;;;;;;;2.67;0.90;;;10.40;58.90;;;;;;5007886;28;20294;-56
2022/04/02 13:09:19;;;;;;;2.08;0.95;;;10.70;59.80;;;;;;5006786;28;20575;-52
2022/04/02 13:11:54;;;;;;;1.33;0.70;;;11.00;58.50;;;;;;5041204;28;20045;-56
2022/04/02 13:14:48;;;;;;;3.65;1.10;;;10.90;55.60;;;;;;5027342;28;20041;-57